createdAt,value
2023-02-07T00:01:29.308Z,32.83
2023-02-07T00:03:58.979Z,22.77
2023-02-07T00:09:01.447Z,14.20
2023-02-07T00:11:28.859Z,18.87
2023-02-07T00:13:58.812Z,21.73
2023-02-07T00:16:27.114Z,19.50
2023-02-07T00:18:55.175Z,21.02
2023-02-07T00:21:24.296Z,26.98
2023-02-07T00:23:53.308Z,25.95
2023-02-07T00:26:23.530Z,27.85
2023-02-07T00:28:53.869Z,28.20
2023-02-07T00:31:26.153Z,26.95
2023-02-07T00:33:56.976Z,22.85
2023-02-07T00:36:26.797Z,22.75
2023-02-07T00:39:03.530Z,19.80
2023-02-07T00:41:32.057Z,19.48
2023-02-07T00:44:00.185Z,24.67
2023-02-07T00:46:27.640Z,28.00
2023-02-07T00:48:55.488Z,24.98
2023-02-07T00:51:25.771Z,22.83
2023-02-07T00:53:55.685Z,15.52
2023-02-07T00:56:26.710Z,14.05
2023-02-07T00:58:54.455Z,13.65
2023-02-07T01:01:22.881Z,11.07
2023-02-07T01:03:51.367Z,9.25
2023-02-07T01:06:18.883Z,9.35
2023-02-07T01:08:46.405Z,6.82
2023-02-07T01:11:16.725Z,6.05
2023-02-07T01:13:44.795Z,5.80
2023-02-07T01:16:33.124Z,6.40
2023-02-07T01:19:09.390Z,5.85
2023-02-07T01:21:37.282Z,6.45
2023-02-07T01:24:06.087Z,6.50
2023-02-07T01:26:35.306Z,6.35
2023-02-07T01:29:02.864Z,6.00
2023-02-07T01:31:30.731Z,9.70
2023-02-07T01:34:00.121Z,7.43
2023-02-07T01:38:56.867Z,4.65
2023-02-07T01:41:26.367Z,6.50
2023-02-07T01:44:00.321Z,9.15
2023-02-07T01:46:29.241Z,14.10
2023-02-07T01:48:58.913Z,6.43
2023-02-07T01:51:28.397Z,6.55
2023-02-07T01:54:03.649Z,6.72
2023-02-07T01:56:32.817Z,6.15
2023-02-07T01:59:04.597Z,5.18
2023-02-07T02:01:32.756Z,7.82
2023-02-07T02:04:00.353Z,6.20
2023-02-07T02:06:29.835Z,6.47
2023-02-07T02:08:59.850Z,6.30
2023-02-07T02:11:53.592Z,6.97
2023-02-07T02:14:39.457Z,5.78
2023-02-07T02:18:04.798Z,7.22
2023-02-07T02:20:50.869Z,6.05
2023-02-07T02:23:20.890Z,8.88
2023-02-07T02:26:23.570Z,9.88
2023-02-07T02:29:12.513Z,18.35
2023-02-07T02:34:26.111Z,10.63
2023-02-07T02:37:14.065Z,13.52
2023-02-07T02:39:49.475Z,14.02
2023-02-07T02:42:25.766Z,13.30
2023-02-07T02:45:07.310Z,7.87
2023-02-07T02:47:36.271Z,7.75
2023-02-07T02:50:04.272Z,7.32
2023-02-07T02:52:49.556Z,7.10
2023-02-07T02:55:29.913Z,6.65
2023-02-07T02:58:18.288Z,6.90
2023-02-07T03:00:51.429Z,6.07
2023-02-07T03:03:31.243Z,6.80
2023-02-07T03:06:11.859Z,8.13
2023-02-07T03:08:58.339Z,8.65
2023-02-07T03:11:26.963Z,8.38
2023-02-07T03:14:02.495Z,8.38
2023-02-07T03:17:21.294Z,11.63
2023-02-07T03:20:18.373Z,14.15
2023-02-07T03:22:47.556Z,10.30
2023-02-07T03:25:17.445Z,8.88
2023-02-07T03:27:47.101Z,7.78
2023-02-07T03:30:18.645Z,6.90
2023-02-07T03:32:52.926Z,10.20
2023-02-07T03:35:29.343Z,10.77
2023-02-07T03:37:59.132Z,12.70
2023-02-07T03:40:29.854Z,9.48
2023-02-07T03:43:06.928Z,6.95
2023-02-07T03:45:35.322Z,7.37
2023-02-07T03:48:02.640Z,8.23
2023-02-07T03:50:30.723Z,6.95
2023-02-07T03:52:58.466Z,6.85
2023-02-07T03:55:25.829Z,7.07
2023-02-07T03:57:53.270Z,6.90
2023-02-07T04:00:20.969Z,5.43
2023-02-07T04:02:48.712Z,6.30
2023-02-07T04:05:16.276Z,5.82
2023-02-07T04:07:43.672Z,6.53
2023-02-07T04:10:12.412Z,6.72
2023-02-07T04:12:39.779Z,6.65
2023-02-07T04:15:08.093Z,7.57
2023-02-07T04:17:36.051Z,6.30
2023-02-07T04:20:05.579Z,8.13
2023-02-07T04:22:33.250Z,6.80
2023-02-07T04:25:01.623Z,4.72
2023-02-07T04:27:33.268Z,12.43
2023-02-07T04:30:05.051Z,13.40
2023-02-07T04:32:32.418Z,10.68
2023-02-07T04:34:59.735Z,9.38
2023-02-07T04:37:27.391Z,12.37
2023-02-07T04:39:54.633Z,9.50
2023-02-07T04:42:21.915Z,9.18
2023-02-07T04:44:49.506Z,9.60
2023-02-07T04:47:16.756Z,8.32
2023-02-07T04:49:44.105Z,7.32
2023-02-07T04:52:11.743Z,7.87
2023-02-07T04:54:39.132Z,8.60
2023-02-07T04:57:06.522Z,7.62
2023-02-07T04:59:34.284Z,7.45
2023-02-07T05:02:01.784Z,7.55
2023-02-07T05:04:29.086Z,7.15
2023-02-07T05:06:56.724Z,7.85
2023-02-07T05:09:24.067Z,7.80
2023-02-07T05:11:51.381Z,7.75
2023-02-07T05:14:19.061Z,6.57
2023-02-07T05:16:46.880Z,7.60
2023-02-07T05:19:14.236Z,7.30
2023-02-07T05:21:41.839Z,7.62
2023-02-07T05:24:09.220Z,7.15
2023-02-07T05:26:36.520Z,7.90
2023-02-07T05:29:04.296Z,8.32
2023-02-07T05:31:50.468Z,7.70
2023-02-07T05:34:18.356Z,8.50
2023-02-07T05:36:45.672Z,7.78
2023-02-07T05:39:13.142Z,8.18
2023-02-07T05:41:40.794Z,8.75
2023-02-07T05:44:08.211Z,8.43
2023-02-07T05:46:35.534Z,8.02
2023-02-07T05:49:03.853Z,7.45
2023-02-07T05:51:31.466Z,9.32
2023-02-07T05:53:58.726Z,9.18
2023-02-07T05:56:26.319Z,8.88
2023-02-07T05:58:53.979Z,8.02
2023-02-07T06:01:21.206Z,14.00
2023-02-07T06:03:49.027Z,15.77
2023-02-07T06:06:16.565Z,15.88
2023-02-07T06:08:43.793Z,12.25
2023-02-07T06:11:11.414Z,9.60
2023-02-07T06:13:39.585Z,8.20
2023-02-07T06:16:07.323Z,10.52
2023-02-07T06:18:34.990Z,14.77
2023-02-07T06:21:02.352Z,14.85
2023-02-07T06:23:29.630Z,11.07
2023-02-07T06:25:57.720Z,10.88
2023-02-07T06:28:24.999Z,8.85
2023-02-07T06:30:53.608Z,10.02
2023-02-07T06:33:21.347Z,8.75
2023-02-07T06:35:49.689Z,8.82
2023-02-07T06:38:18.572Z,7.05
2023-02-07T06:40:46.330Z,12.98
2023-02-07T06:43:13.903Z,9.85
2023-02-07T06:45:41.365Z,10.40
2023-02-07T06:48:09.854Z,8.18
2023-02-07T06:50:37.547Z,8.75
2023-02-07T06:53:05.455Z,7.75
2023-02-07T06:55:37.635Z,7.82
2023-02-07T06:58:06.688Z,7.20
2023-02-07T07:00:34.706Z,10.07
2023-02-07T07:03:02.275Z,9.02
2023-02-07T07:05:30.010Z,7.30
2023-02-07T07:07:57.924Z,7.85
2023-02-07T07:10:25.409Z,7.62
2023-02-07T07:12:52.798Z,8.70
2023-02-07T07:15:20.491Z,8.93
2023-02-07T07:17:47.875Z,9.60
2023-02-07T07:20:16.055Z,9.25
2023-02-07T07:22:43.807Z,10.80
2023-02-07T07:25:11.943Z,12.60
2023-02-07T07:27:39.517Z,9.68
2023-02-07T07:30:10.636Z,10.82
2023-02-07T07:32:38.508Z,9.68
2023-02-07T07:35:07.843Z,9.63
2023-02-07T07:37:35.577Z,10.48
2023-02-07T07:40:03.961Z,10.55
2023-02-07T07:42:31.286Z,10.55
2023-02-07T07:45:02.815Z,10.60
2023-02-07T07:47:30.262Z,11.18
2023-02-07T07:49:57.658Z,9.00
2023-02-07T07:52:26.515Z,9.27
2023-02-07T07:54:53.958Z,10.93
2023-02-07T07:57:21.469Z,7.97
2023-02-07T07:59:49.215Z,8.55
2023-02-07T08:02:16.623Z,8.88
2023-02-07T08:04:44.368Z,9.10
2023-02-07T08:07:11.776Z,7.45
2023-02-07T08:09:39.274Z,9.05
2023-02-07T08:12:07.115Z,9.10
2023-02-07T08:14:34.479Z,7.95
2023-02-07T08:17:01.818Z,7.28
2023-02-07T08:19:29.425Z,8.52
2023-02-07T08:21:56.694Z,9.00
2023-02-07T08:24:24.809Z,8.07
2023-02-07T08:26:53.591Z,8.40
2023-02-07T08:29:20.941Z,8.43
2023-02-07T08:31:49.177Z,7.97
2023-02-07T08:34:18.768Z,7.03
2023-02-07T08:36:46.005Z,7.70
2023-02-07T08:39:13.499Z,8.15
2023-02-07T08:41:41.252Z,8.93
2023-02-07T08:44:08.693Z,8.15
2023-02-07T08:46:36.155Z,9.27
2023-02-07T08:49:03.905Z,7.87
2023-02-07T08:51:31.236Z,8.85
2023-02-07T08:53:58.534Z,9.05
2023-02-07T08:56:26.266Z,9.82
2023-02-07T08:58:53.563Z,9.77
2023-02-07T09:01:20.953Z,9.63
2023-02-07T09:03:48.670Z,11.40
2023-02-07T09:06:15.986Z,10.67
2023-02-07T09:08:43.341Z,9.80
2023-02-07T09:11:11.131Z,7.53
2023-02-07T09:13:38.604Z,8.63
2023-02-07T09:16:06.042Z,8.40
2023-02-07T09:18:34.974Z,9.38
2023-02-07T09:21:02.345Z,9.80
2023-02-07T09:23:29.795Z,6.35
2023-02-07T09:26:01.636Z,7.87
2023-02-07T09:28:28.994Z,12.55
2023-02-07T09:30:56.715Z,13.48
2023-02-07T09:33:24.107Z,10.25
2023-02-07T09:35:52.284Z,8.98
2023-02-07T09:38:23.196Z,8.70
2023-02-07T09:40:51.863Z,6.67
2023-02-07T09:43:46.139Z,7.62
2023-02-07T09:46:47.350Z,8.00
2023-02-07T09:49:14.996Z,7.33
2023-02-07T09:51:44.339Z,8.30
2023-02-07T09:56:42.412Z,8.17
2023-02-07T09:59:31.428Z,8.33
2023-02-07T10:04:44.449Z,5.70
2023-02-07T10:07:13.422Z,7.37
2023-02-07T10:12:22.006Z,7.45
2023-02-07T10:15:18.594Z,7.05
2023-02-07T10:17:52.679Z,6.67
2023-02-07T10:21:02.173Z,10.70
2023-02-07T10:26:23.818Z,5.62
2023-02-07T10:31:26.639Z,7.47
2023-02-07T10:34:15.470Z,7.28
2023-02-07T10:36:46.332Z,7.70
2023-02-07T10:39:38.098Z,6.97
2023-02-07T10:42:06.073Z,7.30
2023-02-07T10:44:33.446Z,6.37
2023-02-07T10:47:02.657Z,7.20
2023-02-07T10:49:33.285Z,7.10
2023-02-07T10:52:14.859Z,5.13
2023-02-07T10:54:54.470Z,8.37
2023-02-07T10:59:58.802Z,7.87
2023-02-07T11:02:29.263Z,6.60
2023-02-07T11:05:10.227Z,6.37
2023-02-07T11:07:47.459Z,6.40
2023-02-07T11:10:21.716Z,6.60
2023-02-07T11:12:55.418Z,6.77
2023-02-07T11:15:29.134Z,5.73
2023-02-07T11:17:57.800Z,7.43
2023-02-07T11:20:30.626Z,7.10
2023-02-07T11:22:58.730Z,7.53
2023-02-07T11:25:45.731Z,8.77
2023-02-07T11:28:22.705Z,8.77
2023-02-07T11:31:03.897Z,9.20
2023-02-07T11:33:34.106Z,14.50
2023-02-07T11:36:07.399Z,18.13
2023-02-07T11:38:47.001Z,9.47
2023-02-07T11:41:27.758Z,5.33
2023-02-07T11:44:01.498Z,6.97
2023-02-07T11:46:41.631Z,10.43
2023-02-07T11:49:24.106Z,5.57
2023-02-07T11:51:58.457Z,5.10
2023-02-07T11:54:27.100Z,8.53
2023-02-07T11:57:03.148Z,9.52
2023-02-07T11:59:32.370Z,11.63
2023-02-07T12:02:15.365Z,8.00
2023-02-07T12:04:43.516Z,6.90
2023-02-07T12:07:34.664Z,7.13
2023-02-07T12:10:06.089Z,5.50
2023-02-07T12:12:45.234Z,5.37
2023-02-07T12:15:23.510Z,5.50
2023-02-07T12:18:01.296Z,5.07
2023-02-07T12:20:51.706Z,6.73
2023-02-07T12:23:43.577Z,7.20
2023-02-07T12:26:26.120Z,8.97
2023-02-07T12:29:24.671Z,8.37
2023-02-07T12:31:58.436Z,8.85
2023-02-07T12:34:48.746Z,9.17
2023-02-07T12:37:32.723Z,7.80
2023-02-07T12:40:25.041Z,9.47
2023-02-07T12:43:07.060Z,10.05
2023-02-07T12:45:49.112Z,13.07
2023-02-07T12:48:19.608Z,12.57
2023-02-07T12:51:14.079Z,11.13
2023-02-07T12:53:53.695Z,10.13
2023-02-07T12:59:51.318Z,8.57
2023-02-07T13:02:46.148Z,9.23
2023-02-07T13:05:43.033Z,8.80
2023-02-07T13:08:28.886Z,8.17
2023-02-07T13:11:15.501Z,8.20
2023-02-07T13:14:08.265Z,7.00
2023-02-07T13:16:51.515Z,7.63
2023-02-07T13:19:37.100Z,7.83
2023-02-07T13:22:04.714Z,6.80
2023-02-07T13:24:34.386Z,7.20
2023-02-07T13:27:06.147Z,7.70
2023-02-07T13:29:36.418Z,9.50
2023-02-07T13:32:12.889Z,8.63
2023-02-07T13:35:02.164Z,10.07
2023-02-07T13:37:43.749Z,10.40
2023-02-07T13:40:22.782Z,9.80
2023-02-07T13:43:01.472Z,11.30
2023-02-07T13:45:56.556Z,14.20
2023-02-07T13:48:45.596Z,9.37
2023-02-07T13:51:22.530Z,9.33
2023-02-07T13:54:11.828Z,8.83
2023-02-07T13:56:58.227Z,7.70
2023-02-07T13:59:39.553Z,7.10
2023-02-07T14:02:23.463Z,9.20
2023-02-07T14:04:59.208Z,12.90
2023-02-07T14:07:34.510Z,10.20
2023-02-07T14:10:06.564Z,12.93
2023-02-07T14:12:37.649Z,14.07
2023-02-07T14:15:42.131Z,10.87
2023-02-07T14:18:49.180Z,8.67
2023-02-07T14:21:22.899Z,10.13
2023-02-07T14:24:01.607Z,10.47
2023-02-07T14:26:38.435Z,12.07
2023-02-07T14:29:23.868Z,11.47
2023-02-07T14:31:56.440Z,11.03
2023-02-07T14:34:28.930Z,11.80
2023-02-07T14:36:56.962Z,13.53
2023-02-07T14:39:30.220Z,14.37
2023-02-07T14:42:17.043Z,17.57
2023-02-07T14:44:48.240Z,17.00
2023-02-07T14:47:24.493Z,16.13
2023-02-07T14:49:55.811Z,15.37
2023-02-07T14:52:31.311Z,14.13
2023-02-07T14:55:06.705Z,11.93
2023-02-07T14:57:49.187Z,11.27
2023-02-07T15:00:31.727Z,14.43
2023-02-07T15:03:06.364Z,16.43
2023-02-07T15:05:39.526Z,17.23
2023-02-07T15:08:22.742Z,17.93
2023-02-07T15:10:56.208Z,14.47
2023-02-07T15:13:28.650Z,12.17
2023-02-07T15:16:05.220Z,14.63
2023-02-07T15:18:39.407Z,9.77
2023-02-07T15:21:11.981Z,9.77
2023-02-07T15:23:39.796Z,10.03
2023-02-07T15:26:08.861Z,9.23
2023-02-07T15:28:36.277Z,9.02
2023-02-07T15:31:14.083Z,12.60
2023-02-07T15:33:50.715Z,17.57
2023-02-07T15:36:40.899Z,12.07
2023-02-07T15:39:18.734Z,11.88
2023-02-07T15:41:47.598Z,11.52
2023-02-07T15:44:29.813Z,14.73
2023-02-07T15:47:04.237Z,13.93
2023-02-07T15:49:41.112Z,12.82
2023-02-07T15:52:23.915Z,11.80
2023-02-07T15:54:53.633Z,12.13
2023-02-07T15:57:37.067Z,10.63
2023-02-07T16:00:09.644Z,10.48
2023-02-07T16:02:47.526Z,11.02
2023-02-07T16:05:31.445Z,10.45
2023-02-07T16:08:06.066Z,10.38
2023-02-07T16:10:39.735Z,10.13
2023-02-07T16:13:07.186Z,10.07
2023-02-07T16:15:37.944Z,9.52
2023-02-07T16:18:06.396Z,10.43
2023-02-07T16:20:35.986Z,9.55
2023-02-07T16:23:08.277Z,9.10
2023-02-07T16:25:37.155Z,9.73
2023-02-07T16:28:11.497Z,8.88
2023-02-07T16:30:41.160Z,8.68
2023-02-07T16:33:13.878Z,9.27
2023-02-07T16:35:41.458Z,8.20
2023-02-07T16:38:09.107Z,7.70
2023-02-07T16:40:36.455Z,7.70
2023-02-07T16:43:06.628Z,8.02
2023-02-07T16:45:39.048Z,7.50
2023-02-07T16:48:14.984Z,7.65
2023-02-07T16:50:43.215Z,7.10
2023-02-07T16:53:10.753Z,8.65
2023-02-07T16:55:39.329Z,8.68
2023-02-07T16:58:07.882Z,7.47
2023-02-07T17:00:35.221Z,6.05
2023-02-07T17:03:02.561Z,5.80
2023-02-07T17:05:30.280Z,6.47
2023-02-07T17:07:57.612Z,6.43
2023-02-07T17:10:34.431Z,8.65
2023-02-07T17:13:02.452Z,9.35
2023-02-07T17:15:30.181Z,8.45
2023-02-07T17:17:58.818Z,8.43
2023-02-07T17:20:29.696Z,12.95
2023-02-07T17:22:57.539Z,25.52
2023-02-07T17:25:27.509Z,21.48
2023-02-07T17:27:55.857Z,22.65
2023-02-07T17:30:29.459Z,12.07
2023-02-07T17:32:58.702Z,8.55
2023-02-07T17:35:26.214Z,10.10
2023-02-07T17:37:53.794Z,9.30
2023-02-07T17:40:25.923Z,10.35
2023-02-07T17:42:53.566Z,10.63
2023-02-07T17:45:21.433Z,17.35
2023-02-07T17:47:48.810Z,19.20
2023-02-07T17:50:31.937Z,15.27
2023-02-07T17:53:01.732Z,16.45
2023-02-07T17:55:30.650Z,13.05
2023-02-07T17:57:57.982Z,17.83
2023-02-07T18:00:31.892Z,18.10
2023-02-07T18:02:59.625Z,19.02
2023-02-07T18:05:26.964Z,19.40
2023-02-07T18:07:54.423Z,23.98
2023-02-07T18:10:28.200Z,20.65
2023-02-07T18:12:56.294Z,22.10
2023-02-07T18:15:24.566Z,24.40
2023-02-07T18:17:53.300Z,24.65
2023-02-07T18:20:28.793Z,30.20
2023-02-07T18:22:58.283Z,29.50
2023-02-07T18:25:27.918Z,27.60
2023-02-07T18:27:57.550Z,22.13
2023-02-07T18:32:53.584Z,18.83
2023-02-07T18:35:21.537Z,20.45
2023-02-07T18:37:48.910Z,19.73
2023-02-07T18:40:16.515Z,21.15
2023-02-07T18:42:44.308Z,19.80
2023-02-07T18:45:13.814Z,20.00
2023-02-07T18:47:42.055Z,17.87
2023-02-07T18:50:12.061Z,17.95
2023-02-07T18:52:39.868Z,25.12
2023-02-07T18:55:07.898Z,26.12
2023-02-07T18:57:35.605Z,30.08
2023-02-07T19:00:05.708Z,24.40
2023-02-07T19:02:33.074Z,20.17
2023-02-07T19:05:00.892Z,20.92
2023-02-07T19:07:28.238Z,18.87
2023-02-07T19:09:55.664Z,18.77
2023-02-07T19:12:23.335Z,22.50
2023-02-07T19:14:51.200Z,27.25
2023-02-07T19:17:20.238Z,27.98
2023-02-07T19:19:48.146Z,24.90
2023-02-07T19:22:21.549Z,51.60
2023-02-07T19:24:54.577Z,37.50
2023-02-07T19:27:21.915Z,33.75
2023-02-07T19:29:49.350Z,18.92
2023-02-07T19:32:17.111Z,17.95
2023-02-07T19:34:44.547Z,15.55
2023-02-07T19:37:11.871Z,63.90
2023-02-07T19:39:39.674Z,81.68
2023-02-07T19:42:07.043Z,75.22
2023-02-07T19:44:34.330Z,40.80
2023-02-07T19:47:02.100Z,30.80
2023-02-07T19:49:29.441Z,21.27
2023-02-07T19:51:57.449Z,20.83
2023-02-07T19:54:25.326Z,19.37
2023-02-07T19:56:52.736Z,50.25
2023-02-07T19:59:20.564Z,51.53
2023-02-07T20:01:48.463Z,74.28
2023-02-07T20:04:16.327Z,59.03
2023-02-07T20:06:43.830Z,52.08
2023-02-07T20:09:11.157Z,40.72
2023-02-07T20:11:38.882Z,34.92
2023-02-07T20:14:07.087Z,33.90
2023-02-07T20:16:37.681Z,27.65
2023-02-07T20:19:08.824Z,24.55
2023-02-07T20:21:37.712Z,17.45
2023-02-07T20:24:05.867Z,18.57
2023-02-07T20:26:44.220Z,15.23
2023-02-07T20:29:15.268Z,16.98
2023-02-07T20:31:44.159Z,15.45
2023-02-07T20:36:43.780Z,16.08
2023-02-07T20:39:14.695Z,14.77
2023-02-07T20:41:43.405Z,14.20
2023-02-07T20:44:22.558Z,15.27
2023-02-07T20:46:51.290Z,12.60
2023-02-07T20:49:22.449Z,14.80
2023-02-07T20:51:52.006Z,17.17
2023-02-07T20:56:51.170Z,17.42
2023-02-07T20:59:21.885Z,12.98
2023-02-07T21:01:51.159Z,13.82
2023-02-07T21:04:18.643Z,12.93
2023-02-07T21:06:46.114Z,14.07
2023-02-07T21:09:14.449Z,13.27
2023-02-07T21:11:47.955Z,16.12
2023-02-07T21:14:25.830Z,17.75
2023-02-07T21:16:55.222Z,16.52
2023-02-07T21:19:23.698Z,17.87
2023-02-07T21:21:51.520Z,20.62
2023-02-07T21:24:19.595Z,33.58
2023-02-07T21:26:49.852Z,20.33
2023-02-07T21:29:18.247Z,23.08
2023-02-07T21:31:45.663Z,27.85
2023-02-07T21:34:16.115Z,21.75
2023-02-07T21:36:43.812Z,15.65
2023-02-07T21:39:12.381Z,17.35
2023-02-07T21:41:42.906Z,18.95
2023-02-07T21:44:11.375Z,19.42
2023-02-07T21:46:41.122Z,19.45
2023-02-07T21:49:14.838Z,45.47
2023-02-07T21:51:43.671Z,51.33
2023-02-07T21:54:12.931Z,47.42
2023-02-07T21:56:42.448Z,58.95
2023-02-07T21:59:15.974Z,51.53
2023-02-07T22:01:44.864Z,46.72
2023-02-07T22:04:14.427Z,38.65
2023-02-07T22:06:43.896Z,38.40
2023-02-07T22:09:13.591Z,37.65
2023-02-07T22:11:42.052Z,34.90
2023-02-07T22:14:10.893Z,38.92
2023-02-07T22:16:39.405Z,31.27
2023-02-07T22:19:07.896Z,31.17
2023-02-07T22:21:37.291Z,36.33
2023-02-07T22:24:06.328Z,40.05
2023-02-07T22:26:34.999Z,34.00
2023-02-07T22:29:02.956Z,33.88
2023-02-07T22:31:32.200Z,36.45
2023-02-07T22:34:03.103Z,31.52
2023-02-07T22:36:33.785Z,35.90
2023-02-07T22:39:02.612Z,28.08
2023-02-07T22:41:30.710Z,34.60
2023-02-07T22:43:59.556Z,34.15
2023-02-07T22:46:28.561Z,36.73
2023-02-07T22:48:56.699Z,35.42
2023-02-07T22:51:33.350Z,48.45
2023-02-07T22:54:06.450Z,49.80
2023-02-07T22:56:36.413Z,42.60
2023-02-07T22:59:05.206Z,41.25
2023-02-07T23:01:39.294Z,32.00
2023-02-07T23:04:18.168Z,31.12
2023-02-07T23:06:46.952Z,44.50
2023-02-07T23:09:15.115Z,29.73
2023-02-07T23:11:42.617Z,28.87
2023-02-07T23:14:10.036Z,28.17
2023-02-07T23:16:38.466Z,27.90
2023-02-07T23:19:09.881Z,27.33
2023-02-07T23:21:37.485Z,33.38
2023-02-07T23:24:04.964Z,30.70
2023-02-07T23:26:33.307Z,32.35
2023-02-07T23:29:01.075Z,35.60
2023-02-07T23:31:28.882Z,32.90
2023-02-07T23:33:56.422Z,30.73
2023-02-07T23:36:24.176Z,25.17
2023-02-07T23:38:51.901Z,25.50
2023-02-07T23:41:19.957Z,22.15
2023-02-07T23:43:48.513Z,20.95
2023-02-07T23:46:16.758Z,19.25
2023-02-07T23:48:44.482Z,25.23
2023-02-07T23:51:13.985Z,22.02
2023-02-07T23:53:43.526Z,23.80
2023-02-07T23:56:15.824Z,23.45
2023-02-07T23:58:45.165Z,22.02
